METAR Data
IDs: Format: Raw Decoded Include TAF

Data at: 1340 UTC 10 Aug 2022

KCNO 101253Z AUTO 00000KT 10SM CLR 21/14 A2999 RMK AO2 SLP147 T02110144
KCNO 101153Z AUTO 00000KT 10SM CLR 22/15 A2998 RMK AO2 SLP144 T02220150 10256 20206 58004
KCNO 101053Z AUTO 00000KT 10SM CLR 22/14 A2998 RMK AO2 SLP145 T02220144
KCNO 100953Z AUTO 00000KT 9SM CLR 23/14 A2999 RMK AO2 SLP146 T02280144
KCNO 100853Z AUTO 00000KT 10SM CLR 24/14 A2999 RMK AO2 SLP147 T02390139 51002
KCNO 100753Z AUTO 00000KT 10SM CLR 23/14 A2999 RMK AO2 SLP147 T02280139 403940206
KCNO 100653Z AUTO 27005KT 10SM CLR 23/12 A3000 RMK AO2 SLP150 T02330122
KCNO 100553Z AUTO 28007KT 10SM CLR 26/12 A2999 RMK AO2 SLP145 T02560122 10367 20256 51025
KCNO 100453Z AUTO 30008KT 10SM CLR 27/12 A2997 RMK AO2 SLP142 T02670122
KCNO 100353Z AUTO 29009KT 10SM CLR 28/12 A2994 RMK AO2 SLP131 LAST T02780122
KCNO 100253Z 26008KT 10SM FEW110 SCT200 29/09 A2991 RMK AO2 SLP121 T02940089 53007
KCNO 100153Z 24012KT 10SM FEW110 BKN200 32/07 A2989 RMK AO2 SLP114 T03220067
KCNO 100053Z 24015KT 10SM FEW110 SCT200 34/06 A2988 RMK AO2 SLP111 T03440061
KCNO 092353Z 24013KT 10SM FEW110 SCT200 36/07 A2989 RMK AO2 SLP113 T03610072 10394 20339 55008
KCNO 092253Z 26015KT 10SM FEW110 FEW200 38/09 A2989 RMK AO2 SLP112 T03780089
KCNO 092153Z 25010KT 10SM FEW110 FEW200 37/13 A2990 RMK AO2 SLP116 T03720128
KCNO 092053Z 23012G18KT 10SM FEW110 FEW200 38/13 A2991 RMK AO2 SLP121 T03830128 56018
KCNO 091953Z VRB04KT 10SM FEW100 SCT200 37/09 A2993 RMK AO2 SLP126 T03720094
KCNO 091853Z 18003KT 10SM FEW100 SCT200 36/09 A2995 RMK AO2 SLP133 T03560094
KCNO 091753Z 00000KT 10SM BKN200 34/11 A2997 RMK AO2 SLP139 T03390111 10339 20206 50002
KCNO 091653Z 00000KT 10SM BKN200 31/14 A2998 RMK AO2 SLP143 T03060144
KCNO 091553Z 00000KT 10SM BKN200 27/16 A2998 RMK AO2 SLP144 T02720156
KCNO 091453Z 00000KT 10SM SCT200 26/14 A2996 RMK AO2 SLP139 T02610144 53012
KCNO 091353Z 00000KT 10SM SCT150 22/16 A2995 RMK AO2 SLP134 T02170156
KCNO 091253Z AUTO 35003KT 10SM CLR 21/15 A2993 RMK AO2 SLP128 T02060150
KCNO 091153Z AUTO 00000KT 10SM CLR 23/16 A2993 RMK AO2 SLP127 T02280156 10261 20217 55001
KCNO 091053Z AUTO 00000KT 10SM CLR 22/15 A2992 RMK AO2 SLP125 T02220150
KCNO 090953Z AUTO 00000KT 10SM CLR 24/15 A2993 RMK AO2 SLP126 T02390150
KCNO 090853Z AUTO 18003KT 9SM CLR 24/15 A2993 RMK AO2 SLP127 T02440150 58006
KCNO 090753Z AUTO 22003KT 10SM CLR 25/13 A2995 RMK AO2 SLP133 T02500133 403830200
KCNO 090653Z AUTO 00000KT 10SM CLR 26/13 A2996 RMK AO2 SLP136 T02560128
KCNO 090553Z AUTO 26005KT 10SM CLR 26/14 A2995 RMK AO2 SLP134 T02560144 10356 20256 51015
KCNO 090453Z AUTO 29009KT 10SM CLR 27/13 A2994 RMK AO2 SLP132 T02720133
KCNO 090353Z AUTO 29009KT 10SM CLR 28/13 A2992 RMK AO2 SLP125 LAST T02830133
KCNO 090253Z 27009KT 10SM CLR 30/12 A2990 RMK AO2 SLP118 T03000122 53010
KCNO 090153Z 26011KT 10SM SCT200 32/12 A2987 RMK AO2 SLP106 T03220117